Ash Grove, Nebraska
Current Conditions -  °F | °C
As of 6:55 PM on Friday 19 Dec 2014 (Local Time) from KHDE Reporting Station
Clear Clear  
Wind Chill: 25°   Ceiling: Unl
Heat Index: 31°   Visibility: 10mi
Dew Point: 28°   Wind: 6mph
Humidity: 90%   Direction: 200°SSW
Pressure: 30.03"   Gusts: NA
Location:  40.1734°N, 98.8989°W
Report Text: KHDE 200055Z AUTO 20005KT 10SM CLR M01/M02 A3003 RMK AO2 T10071021
Loading
Personal Weather Stations






























Interactive Weather Map New forecast layout! Learn more

10-Day Weather Forecast

Advertisements
Track Severe Weather on mobile